Sumiyoshi Maru No.2 — JD3665 — position and weather

sailwx.info

Track history (hours):
 
Tides and Currents Weather Stations Pressure Air Temp Water Temp Dewpoint Dewpoint Depression Visibility Wind Speed Wind Dir Waves Ship Positions

Sumiyoshi Maru No.2

Last reported at 2018-Jun-19 01:46 UTC. Time now 2018-Jun-24 20:31 UTC.
Position N 35°17' E 139°45'.

Length 61 m.

Type: Cargo ship. MMSI: 431005214.

Date/timePositionNaut miles runAvg speedWind from/ knotsBaromVisibWave heightAir tempDewpointWater temp
2018-Jun-19 01:46N 35°17' E 139°45'411.8
2018-Jun-19 01:28N 35°19' E 139°43'4 6.4
2018-Jun-19 00:52N 35°22' E 139°40'0 0.0
2018-Jun-19 00:16N 35°22' E 139°40'0 0.0
2018-Jun-18 23:07N 35°22' E 139°40'0 0.0
2018-Jun-18 22:58N 35°22' E 139°40'0 0.0
2018-Jun-18 22:22N 35°22' E 139°40'0 0.0
2018-Jun-18 21:55N 35°22' E 139°40'0 0.0
2018-Jun-18 20:46N 35°22' E 139°40'0 0.0
2018-Jun-18 20:25N 35°22' E 139°40'0 0.0
2018-Jun-18 19:13N 35°22' E 139°40'0 0.0
2018-Jun-18 18:49N 35°22' E 139°40'0 0.0
2018-Jun-18 18:25N 35°22' E 139°40'0 0.0
2018-Jun-18 17:52N 35°22' E 139°40'0 0.0
2018-Jun-18 17:28N 35°22' E 139°40'0 0.0
2018-Jun-18 16:46N 35°22' E 139°40'0 0.0
2018-Jun-18 16:22N 35°22' E 139°40'0 0.0
2018-Jun-18 15:16N 35°22' E 139°40'0 0.0
2018-Jun-18 14:37N 35°22' E 139°40'0 0.0
2018-Jun-18 14:22N 35°22' E 139°40'0 0.0
2018-Jun-18 13:55N 35°22' E 139°40'0 0.0
2018-Jun-18 12:58N 35°22' E 139°40'0 0.0
2018-Jun-18 12:10N 35°22' E 139°40'0 0.0
2018-Jun-18 11:55N 35°22' E 139°40'0 0.0
2018-Jun-18 11:25N 35°22' E 139°40'0 0.0
2018-Jun-18 10:52N 35°22' E 139°40'0 0.0
2018-Jun-18 10:28N 35°22' E 139°40'0 0.0
2018-Jun-18 09:49N 35°22' E 139°40'0 0.0
2018-Jun-18 09:19N 35°22' E 139°40'0 0.0
2018-Jun-18 08:49N 35°22' E 139°40'0 0.0
2018-Jun-18 08:22N 35°22' E 139°40'0 0.0
2018-Jun-18 07:52N 35°22' E 139°40'0 0.0
2018-Jun-18 07:28N 35°22' E 139°40'0 0.0
2018-Jun-18 06:58N 35°22' E 139°40'0 0.0
2018-Jun-18 06:10N 35°22' E 139°40'0 0.0
2018-Jun-18 05:46N 35°22' E 139°40'0 0.0
2018-Jun-18 05:19N 35°22' E 139°40'0 0.0
2018-Jun-18 04:55N 35°22' E 139°40'0 0.0
2018-Jun-18 04:28N 35°22' E 139°40'0 0.0
2018-Jun-18 03:58N 35°22' E 139°40'0 0.0
2018-Jun-18 03:22N 35°22' E 139°40'0 0.0
2018-Jun-18 02:46N 35°22' E 139°40'0 0.0
2018-Jun-18 02:25N 35°22' E 139°40'0 0.0
2018-Jun-18 01:46N 35°22' E 139°40'0 0.0
2018-Jun-18 01:19N 35°22' E 139°40'0 0.0
2018-Jun-18 00:55N 35°22' E 139°40'0 0.0
2018-Jun-17 21:52N 35°22' E 139°40'0 0.1
2018-Jun-17 21:19N 35°22' E 139°40'0 0.0
2018-Jun-17 17:10N 35°22' E 139°40'0 0.0
2018-Jun-17 15:52N 35°22' E 139°40'0 0.4
2018-Jun-17 14:56N 35°22' E 139°40'6 0.2
2018-Jun-16 07:30N 35°23' E 139°47'  
2018-Jun-13 09:29N 34°15' E 135°03'510.4
2018-Jun-13 09:00N 34°19' E 135°05'23 0.8
2018-Jun-12 03:42N 34°36' E 135°24'310.1
2018-Jun-12 03:24N 34°34' E 135°21'510.3
2018-Jun-12 02:57N 34°31' E 135°17'610.4
2018-Jun-12 02:23N 34°27' E 135°12'4 9.8
2018-Jun-12 01:59N 34°24' E 135°09'510.1
2018-Jun-12 01:30N 34°20' E 135°05'4 8.0
2018-Jun-12 01:00N 34°16' E 135°03'4 7.7
2018-Jun-12 00:30N 34°14' E 135°07'0 0.5
2018-Jun-11 23:52N 34°15' E 135°07'0 0.0
2018-Jun-11 23:29N 34°15' E 135°07'0 0.0
2018-Jun-11 22:59N 34°15' E 135°07'0 0.0
2018-Jun-11 22:29N 34°15' E 135°07'0 0.0
2018-Jun-11 21:59N 34°15' E 135°07'0 0.0
2018-Jun-11 21:28N 34°15' E 135°07'0 0.0
2018-Jun-11 20:58N 34°15' E 135°07'0 0.0
2018-Jun-11 20:26N 34°15' E 135°07'0 0.1
2018-Jun-11 19:58N 34°15' E 135°07'2 5.5
2018-Jun-11 19:31N 34°15' E 135°04'5 9.3
2018-Jun-11 19:00N 34°20' E 135°05'611.6
2018-Jun-11 18:28N 34°25' E 135°09'1612.0
2018-Jun-11 17:07N 34°37' E 135°23'1 5.9
2018-Jun-11 16:58N 34°37' E 135°23'0 0.0
2018-Jun-11 16:28N 34°37' E 135°23'0 0.0
2018-Jun-11 15:58N 34°37' E 135°23'0 0.0
2018-Jun-11 15:28N 34°37' E 135°23'0 0.0
2018-Jun-11 14:58N 34°37' E 135°23'0 0.0
2018-Jun-11 14:28N 34°37' E 135°23'0 0.0
2018-Jun-11 13:58N 34°37' E 135°23'0 0.0
2018-Jun-11 13:28N 34°37' E 135°23'0 0.0
2018-Jun-11 12:58N 34°37' E 135°23'0 0.0
2018-Jun-11 12:28N 34°37' E 135°23'0 0.0
2018-Jun-11 11:52N 34°37' E 135°23'0 0.1
2018-Jun-11 11:22N 34°37' E 135°23'0 0.0
2018-Jun-11 10:58N 34°37' E 135°23'0 0.0
2018-Jun-11 10:28N 34°37' E 135°23'0 0.0
2018-Jun-11 09:58N 34°37' E 135°23'0 0.1
2018-Jun-11 09:16N 34°37' E 135°23'0 0.0
2018-Jun-11 08:58N 34°37' E 135°23'0 0.0
2018-Jun-11 08:28N 34°37' E 135°23'0 0.0
2018-Jun-11 07:58N 34°37' E 135°23'0 0.0
2018-Jun-11 07:28N 34°37' E 135°23'0 0.0
2018-Jun-11 06:58N 34°37' E 135°23'0 0.0
2018-Jun-11 06:28N 34°37' E 135°23'0 0.0
2018-Jun-11 05:58N 34°37' E 135°23'0 0.0
2018-Jun-11 05:28N 34°37' E 135°23'0 0.0
2018-Jun-11 04:40N 34°37' E 135°23'0 0.0
2018-Jun-11 04:22N 34°37' E 135°23'0 0.2
2018-Jun-11 03:58N 34°38' E 135°23'4 0.6
2018-Jun-10 21:51N 34°39' E 135°27'3 7.9
2018-Jun-10 21:30N 34°38' E 135°24'  
Track history (hours):
 
Tides and Currents Weather Stations Pressure Air Temp Water Temp Dewpoint Dewpoint Depression Visibility Wind Speed Wind Dir Waves Ship Positions

Sumiyoshi Maru No.2

Last reported at 2018-Jun-19 01:46 UTC. Time now 2018-Jun-24 20:31 UTC.
Position N 35°17' E 139°45'.

Length 61 m.

Type: Cargo ship. MMSI: 431005214.

Date/timePositionNaut miles runAvg speedWind from/ knotsBaromVisibWave heightAir tempDewpointWater temp
2018-Jun-19 01:46N 35°17' E 139°45'411.8
2018-Jun-19 01:28N 35°19' E 139°43'4 6.4
2018-Jun-19 00:52N 35°22' E 139°40'0 0.0
2018-Jun-19 00:16N 35°22' E 139°40'0 0.0
2018-Jun-18 23:07N 35°22' E 139°40'0 0.0
2018-Jun-18 22:58N 35°22' E 139°40'0 0.0
2018-Jun-18 22:22N 35°22' E 139°40'0 0.0
2018-Jun-18 21:55N 35°22' E 139°40'0 0.0
2018-Jun-18 20:46N 35°22' E 139°40'0 0.0
2018-Jun-18 20:25N 35°22' E 139°40'0 0.0
2018-Jun-18 19:13N 35°22' E 139°40'0 0.0
2018-Jun-18 18:49N 35°22' E 139°40'0 0.0
2018-Jun-18 18:25N 35°22' E 139°40'0 0.0
2018-Jun-18 17:52N 35°22' E 139°40'0 0.0
2018-Jun-18 17:28N 35°22' E 139°40'0 0.0
2018-Jun-18 16:46N 35°22' E 139°40'0 0.0
2018-Jun-18 16:22N 35°22' E 139°40'0 0.0
2018-Jun-18 15:16N 35°22' E 139°40'0 0.0
2018-Jun-18 14:37N 35°22' E 139°40'0 0.0
2018-Jun-18 14:22N 35°22' E 139°40'0 0.0
2018-Jun-18 13:55N 35°22' E 139°40'0 0.0
2018-Jun-18 12:58N 35°22' E 139°40'0 0.0
2018-Jun-18 12:10N 35°22' E 139°40'0 0.0
2018-Jun-18 11:55N 35°22' E 139°40'0 0.0
2018-Jun-18 11:25N 35°22' E 139°40'0 0.0
2018-Jun-18 10:52N 35°22' E 139°40'0 0.0
2018-Jun-18 10:28N 35°22' E 139°40'0 0.0
2018-Jun-18 09:49N 35°22' E 139°40'0 0.0
2018-Jun-18 09:19N 35°22' E 139°40'0 0.0
2018-Jun-18 08:49N 35°22' E 139°40'0 0.0
2018-Jun-18 08:22N 35°22' E 139°40'0 0.0
2018-Jun-18 07:52N 35°22' E 139°40'0 0.0
2018-Jun-18 07:28N 35°22' E 139°40'0 0.0
2018-Jun-18 06:58N 35°22' E 139°40'0 0.0
2018-Jun-18 06:10N 35°22' E 139°40'0 0.0
2018-Jun-18 05:46N 35°22' E 139°40'0 0.0
2018-Jun-18 05:19N 35°22' E 139°40'0 0.0
2018-Jun-18 04:55N 35°22' E 139°40'0 0.0
2018-Jun-18 04:28N 35°22' E 139°40'0 0.0
2018-Jun-18 03:58N 35°22' E 139°40'0 0.0
2018-Jun-18 03:22N 35°22' E 139°40'0 0.0
2018-Jun-18 02:46N 35°22' E 139°40'0 0.0
2018-Jun-18 02:25N 35°22' E 139°40'0 0.0
2018-Jun-18 01:46N 35°22' E 139°40'0 0.0
2018-Jun-18 01:19N 35°22' E 139°40'0 0.0
2018-Jun-18 00:55N 35°22' E 139°40'0 0.0
2018-Jun-17 21:52N 35°22' E 139°40'0 0.1
2018-Jun-17 21:19N 35°22' E 139°40'0 0.0
2018-Jun-17 17:10N 35°22' E 139°40'0 0.0
2018-Jun-17 15:52N 35°22' E 139°40'0 0.4
2018-Jun-17 14:56N 35°22' E 139°40'6 0.2
2018-Jun-16 07:30N 35°23' E 139°47'  
2018-Jun-13 09:29N 34°15' E 135°03'510.4
2018-Jun-13 09:00N 34°19' E 135°05'23 0.8
2018-Jun-12 03:42N 34°36' E 135°24'310.1
2018-Jun-12 03:24N 34°34' E 135°21'510.3
2018-Jun-12 02:57N 34°31' E 135°17'610.4
2018-Jun-12 02:23N 34°27' E 135°12'4 9.8
2018-Jun-12 01:59N 34°24' E 135°09'510.1
2018-Jun-12 01:30N 34°20' E 135°05'4 8.0
2018-Jun-12 01:00N 34°16' E 135°03'4 7.7
2018-Jun-12 00:30N 34°14' E 135°07'0 0.5
2018-Jun-11 23:52N 34°15' E 135°07'0 0.0
2018-Jun-11 23:29N 34°15' E 135°07'0 0.0
2018-Jun-11 22:59N 34°15' E 135°07'0 0.0
2018-Jun-11 22:29N 34°15' E 135°07'0 0.0
2018-Jun-11 21:59N 34°15' E 135°07'0 0.0
2018-Jun-11 21:28N 34°15' E 135°07'0 0.0
2018-Jun-11 20:58N 34°15' E 135°07'0 0.0
2018-Jun-11 20:26N 34°15' E 135°07'0 0.1
2018-Jun-11 19:58N 34°15' E 135°07'2 5.5
2018-Jun-11 19:31N 34°15' E 135°04'5 9.3
2018-Jun-11 19:00N 34°20' E 135°05'611.6
2018-Jun-11 18:28N 34°25' E 135°09'1612.0
2018-Jun-11 17:07N 34°37' E 135°23'1 5.9
2018-Jun-11 16:58N 34°37' E 135°23'0 0.0
2018-Jun-11 16:28N 34°37' E 135°23'0 0.0
2018-Jun-11 15:58N 34°37' E 135°23'0 0.0
2018-Jun-11 15:28N 34°37' E 135°23'0 0.0
2018-Jun-11 14:58N 34°37' E 135°23'0 0.0
2018-Jun-11 14:28N 34°37' E 135°23'0 0.0
2018-Jun-11 13:58N 34°37' E 135°23'0 0.0
2018-Jun-11 13:28N 34°37' E 135°23'0 0.0
2018-Jun-11 12:58N 34°37' E 135°23'0 0.0
2018-Jun-11 12:28N 34°37' E 135°23'0 0.0
2018-Jun-11 11:52N 34°37' E 135°23'0 0.1
2018-Jun-11 11:22N 34°37' E 135°23'0 0.0
2018-Jun-11 10:58N 34°37' E 135°23'0 0.0
2018-Jun-11 10:28N 34°37' E 135°23'0 0.0
2018-Jun-11 09:58N 34°37' E 135°23'0 0.1
2018-Jun-11 09:16N 34°37' E 135°23'0 0.0
2018-Jun-11 08:58N 34°37' E 135°23'0 0.0
2018-Jun-11 08:28N 34°37' E 135°23'0 0.0
2018-Jun-11 07:58N 34°37' E 135°23'0 0.0
2018-Jun-11 07:28N 34°37' E 135°23'0 0.0
2018-Jun-11 06:58N 34°37' E 135°23'0 0.0
2018-Jun-11 06:28N 34°37' E 135°23'0 0.0
2018-Jun-11 05:58N 34°37' E 135°23'0 0.0
2018-Jun-11 05:28N 34°37' E 135°23'0 0.0
2018-Jun-11 04:40N 34°37' E 135°23'0 0.0
2018-Jun-11 04:22N 34°37' E 135°23'0 0.2
2018-Jun-11 03:58N 34°38' E 135°23'4 0.6
2018-Jun-10 21:51N 34°39' E 135°27'3 7.9
2018-Jun-10 21:30N 34°38' E 135°24'  

Dump ship's entire track history